sensor_id;sensor_type;location;lat;lon;timestamp;P1;durP1;ratioP1;P2;durP2;ratioP2
7080;SDS011;3582;51.506;11.948;2022-07-03T00:00:25;7.23;;;4.77;;
7080;SDS011;3582;51.506;11.948;2022-07-03T00:02:51;5.23;;;4.93;;
7080;SDS011;3582;51.506;11.948;2022-07-03T00:05:17;5.37;;;4.97;;
7080;SDS011;3582;51.506;11.948;2022-07-03T00:07:43;5.07;;;4.80;;
7080;SDS011;3582;51.506;11.948;2022-07-03T00:10:09;5.60;;;5.07;;
7080;SDS011;3582;51.506;11.948;2022-07-03T00:12:35;6.13;;;4.80;;
7080;SDS011;3582;51.506;11.948;2022-07-03T00:15:01;5.57;;;5.17;;
7080;SDS011;3582;51.506;11.948;2022-07-03T00:17:27;12.30;;;5.87;;
7080;SDS011;3582;51.506;11.948;2022-07-03T00:19:53;5.50;;;5.10;;
7080;SDS011;3582;51.506;11.948;2022-07-03T00:22:20;5.87;;;5.37;;
7080;SDS011;3582;51.506;11.948;2022-07-03T00:25:05;5.30;;;5.00;;
7080;SDS011;3582;51.506;11.948;2022-07-03T00:27:32;5.90;;;5.40;;
7080;SDS011;3582;51.506;11.948;2022-07-03T00:29:59;5.50;;;4.77;;
7080;SDS011;3582;51.506;11.948;2022-07-03T00:32:25;5.37;;;4.97;;
7080;SDS011;3582;51.506;11.948;2022-07-03T00:34:53;5.60;;;5.23;;
7080;SDS011;3582;51.506;11.948;2022-07-03T00:37:19;5.23;;;4.83;;
7080;SDS011;3582;51.506;11.948;2022-07-03T00:39:45;6.37;;;5.73;;
7080;SDS011;3582;51.506;11.948;2022-07-03T00:42:13;5.53;;;5.13;;
7080;SDS011;3582;51.506;11.948;2022-07-03T00:44:46;5.53;;;5.03;;
7080;SDS011;3582;51.506;11.948;2022-07-03T00:47:13;5.60;;;5.30;;
7080;SDS011;3582;51.506;11.948;2022-07-03T00:49:39;6.60;;;5.50;;
7080;SDS011;3582;51.506;11.948;2022-07-03T00:52:06;10.73;;;5.67;;
7080;SDS011;3582;51.506;11.948;2022-07-03T00:54:34;5.37;;;5.07;;
7080;SDS011;3582;51.506;11.948;2022-07-03T00:57:01;6.30;;;5.80;;
7080;SDS011;3582;51.506;11.948;2022-07-03T00:59:27;5.87;;;5.17;;
7080;SDS011;3582;51.506;11.948;2022-07-03T01:01:56;5.47;;;5.17;;
7080;SDS011;3582;51.506;11.948;2022-07-03T01:07:02;6.17;;;5.57;;
7080;SDS011;3582;51.506;11.948;2022-07-03T01:12:10;8.10;;;6.20;;
7080;SDS011;3582;51.506;11.948;2022-07-03T01:14:56;6.10;;;5.80;;
7080;SDS011;3582;51.506;11.948;2022-07-03T01:17:26;5.43;;;5.10;;
7080;SDS011;3582;51.506;11.948;2022-07-03T01:20:00;6.67;;;6.17;;
7080;SDS011;3582;51.506;11.948;2022-07-03T01:22:42;5.50;;;5.30;;
7080;SDS011;3582;51.506;11.948;2022-07-03T01:25:13;8.50;;;5.83;;
7080;SDS011;3582;51.506;11.948;2022-07-03T01:30:24;6.50;;;6.10;;
7080;SDS011;3582;51.506;11.948;2022-07-03T01:33:07;6.47;;;5.90;;
7080;SDS011;3582;51.506;11.948;2022-07-03T01:38:01;6.30;;;5.70;;
7080;SDS011;3582;51.506;11.948;2022-07-03T01:40:27;6.07;;;5.77;;
7080;SDS011;3582;51.506;11.948;2022-07-03T01:42:54;5.93;;;5.40;;
7080;SDS011;3582;51.506;11.948;2022-07-03T01:45:20;6.43;;;6.03;;
7080;SDS011;3582;51.506;11.948;2022-07-03T01:47:46;5.90;;;5.33;;
7080;SDS011;3582;51.506;11.948;2022-07-03T01:50:14;6.50;;;6.10;;
7080;SDS011;3582;51.506;11.948;2022-07-03T01:52:42;6.63;;;6.23;;
7080;SDS011;3582;51.506;11.948;2022-07-03T01:55:09;6.47;;;6.07;;
7080;SDS011;3582;51.506;11.948;2022-07-03T01:57:37;7.03;;;6.63;;
7080;SDS011;3582;51.506;11.948;2022-07-03T02:00:06;7.73;;;7.13;;
7080;SDS011;3582;51.506;11.948;2022-07-03T02:02:33;6.30;;;6.00;;
7080;SDS011;3582;51.506;11.948;2022-07-03T02:05:02;6.70;;;6.10;;
7080;SDS011;3582;51.506;11.948;2022-07-03T02:07:33;6.17;;;5.87;;
7080;SDS011;3582;51.506;11.948;2022-07-03T02:10:03;7.20;;;6.50;;
7080;SDS011;3582;51.506;11.948;2022-07-03T02:12:49;7.30;;;6.60;;
7080;SDS011;3582;51.506;11.948;2022-07-03T02:15:18;7.77;;;7.27;;
7080;SDS011;3582;51.506;11.948;2022-07-03T02:17:46;6.27;;;5.83;;
7080;SDS011;3582;51.506;11.948;2022-07-03T02:20:13;8.60;;;6.53;;
7080;SDS011;3582;51.506;11.948;2022-07-03T02:22:41;6.27;;;5.97;;
7080;SDS011;3582;51.506;11.948;2022-07-03T02:25:21;7.03;;;6.50;;
7080;SDS011;3582;51.506;11.948;2022-07-03T02:27:53;6.87;;;6.37;;
7080;SDS011;3582;51.506;11.948;2022-07-03T02:30:20;6.37;;;6.03;;
7080;SDS011;3582;51.506;11.948;2022-07-03T02:32:49;7.23;;;6.73;;
7080;SDS011;3582;51.506;11.948;2022-07-03T02:35:21;7.03;;;6.50;;
7080;SDS011;3582;51.506;11.948;2022-07-03T02:37:50;6.50;;;6.10;;
7080;SDS011;3582;51.506;11.948;2022-07-03T02:40:26;7.13;;;6.73;;
7080;SDS011;3582;51.506;11.948;2022-07-03T02:42:58;8.43;;;6.40;;
7080;SDS011;3582;51.506;11.948;2022-07-03T02:45:29;7.20;;;6.70;;
7080;SDS011;3582;51.506;11.948;2022-07-03T02:48:24;7.37;;;6.50;;
7080;SDS011;3582;51.506;11.948;2022-07-03T02:50:54;7.30;;;6.80;;
7080;SDS011;3582;51.506;11.948;2022-07-03T02:53:30;7.57;;;6.90;;
7080;SDS011;3582;51.506;11.948;2022-07-03T02:56:05;7.03;;;6.53;;
7080;SDS011;3582;51.506;11.948;2022-07-03T03:01:30;7.10;;;6.60;;
7080;SDS011;3582;51.506;11.948;2022-07-03T03:04:09;7.60;;;6.90;;
7080;SDS011;3582;51.506;11.948;2022-07-03T03:06:37;8.00;;;7.30;;
7080;SDS011;3582;51.506;11.948;2022-07-03T03:09:06;7.60;;;7.10;;
7080;SDS011;3582;51.506;11.948;2022-07-03T03:14:05;6.93;;;6.50;;
7080;SDS011;3582;51.506;11.948;2022-07-03T03:16:33;7.30;;;6.70;;
7080;SDS011;3582;51.506;11.948;2022-07-03T03:19:01;8.43;;;7.77;;
7080;SDS011;3582;51.506;11.948;2022-07-03T03:21:27;7.63;;;6.70;;
7080;SDS011;3582;51.506;11.948;2022-07-03T03:23:57;8.00;;;6.40;;
7080;SDS011;3582;51.506;11.948;2022-07-03T03:26:24;6.90;;;6.50;;
7080;SDS011;3582;51.506;11.948;2022-07-03T03:28:50;7.13;;;6.63;;
7080;SDS011;3582;51.506;11.948;2022-07-03T03:31:17;7.90;;;7.40;;
7080;SDS011;3582;51.506;11.948;2022-07-03T03:33:44;7.30;;;6.80;;
7080;SDS011;3582;51.506;11.948;2022-07-03T03:36:12;7.90;;;6.50;;
7080;SDS011;3582;51.506;11.948;2022-07-03T03:38:38;7.40;;;6.90;;
7080;SDS011;3582;51.506;11.948;2022-07-03T03:41:04;7.97;;;7.20;;
7080;SDS011;3582;51.506;11.948;2022-07-03T03:43:30;8.63;;;6.10;;
7080;SDS011;3582;51.506;11.948;2022-07-03T03:45:57;6.57;;;6.17;;
7080;SDS011;3582;51.506;11.948;2022-07-03T03:48:23;8.80;;;8.00;;
7080;SDS011;3582;51.506;11.948;2022-07-03T03:50:49;7.33;;;6.63;;
7080;SDS011;3582;51.506;11.948;2022-07-03T03:53:15;8.83;;;7.93;;
7080;SDS011;3582;51.506;11.948;2022-07-03T03:58:28;6.77;;;6.37;;
7080;SDS011;3582;51.506;11.948;2022-07-03T04:00:55;7.70;;;7.00;;
7080;SDS011;3582;51.506;11.948;2022-07-03T04:03:21;7.13;;;6.30;;
7080;SDS011;3582;51.506;11.948;2022-07-03T04:05:47;7.27;;;6.57;;
7080;SDS011;3582;51.506;11.948;2022-07-03T04:08:12;9.30;;;7.30;;
7080;SDS011;3582;51.506;11.948;2022-07-03T04:10:38;6.73;;;6.33;;
7080;SDS011;3582;51.506;11.948;2022-07-03T04:13:04;6.77;;;6.20;;
7080;SDS011;3582;51.506;11.948;2022-07-03T04:15:30;6.90;;;6.40;;
7080;SDS011;3582;51.506;11.948;2022-07-03T04:17:56;8.17;;;7.67;;
7080;SDS011;3582;51.506;11.948;2022-07-03T04:20:22;8.40;;;7.60;;
7080;SDS011;3582;51.506;11.948;2022-07-03T04:22:48;7.00;;;6.50;;
7080;SDS011;3582;51.506;11.948;2022-07-03T04:25:15;7.20;;;6.60;;
7080;SDS011;3582;51.506;11.948;2022-07-03T04:27:41;8.07;;;7.07;;
7080;SDS011;3582;51.506;11.948;2022-07-03T04:30:07;6.43;;;6.03;;
7080;SDS011;3582;51.506;11.948;2022-07-03T04:32:35;6.53;;;6.13;;
7080;SDS011;3582;51.506;11.948;2022-07-03T04:35:01;7.20;;;6.50;;
7080;SDS011;3582;51.506;11.948;2022-07-03T04:37:27;6.80;;;6.30;;
7080;SDS011;3582;51.506;11.948;2022-07-03T04:39:53;6.60;;;6.00;;
7080;SDS011;3582;51.506;11.948;2022-07-03T04:42:19;7.03;;;6.43;;
7080;SDS011;3582;51.506;11.948;2022-07-03T04:44:45;7.33;;;6.70;;
7080;SDS011;3582;51.506;11.948;2022-07-03T04:47:11;7.27;;;6.73;;
7080;SDS011;3582;51.506;11.948;2022-07-03T04:49:39;7.00;;;6.40;;
7080;SDS011;3582;51.506;11.948;2022-07-03T04:52:05;5.80;;;5.40;;
7080;SDS011;3582;51.506;11.948;2022-07-03T04:54:31;6.37;;;5.87;;
7080;SDS011;3582;51.506;11.948;2022-07-03T04:56:57;5.80;;;5.40;;
7080;SDS011;3582;51.506;11.948;2022-07-03T04:59:23;6.10;;;5.80;;
7080;SDS011;3582;51.506;11.948;2022-07-03T05:01:49;11.43;;;6.33;;
7080;SDS011;3582;51.506;11.948;2022-07-03T05:04:15;6.50;;;5.77;;
7080;SDS011;3582;51.506;11.948;2022-07-03T05:06:41;6.43;;;6.03;;
7080;SDS011;3582;51.506;11.948;2022-07-03T05:09:07;6.23;;;5.93;;
7080;SDS011;3582;51.506;11.948;2022-07-03T05:11:33;6.03;;;5.43;;
7080;SDS011;3582;51.506;11.948;2022-07-03T05:14:00;6.33;;;5.80;;
7080;SDS011;3582;51.506;11.948;2022-07-03T05:16:26;6.10;;;5.57;;
7080;SDS011;3582;51.506;11.948;2022-07-03T05:18:53;6.10;;;5.60;;
7080;SDS011;3582;51.506;11.948;2022-07-03T05:21:21;6.10;;;5.50;;
7080;SDS011;3582;51.506;11.948;2022-07-03T05:23:47;8.27;;;5.27;;
7080;SDS011;3582;51.506;11.948;2022-07-03T05:26:13;6.00;;;5.70;;
7080;SDS011;3582;51.506;11.948;2022-07-03T05:28:39;5.40;;;5.00;;
7080;SDS011;3582;51.506;11.948;2022-07-03T05:31:05;5.27;;;4.97;;
7080;SDS011;3582;51.506;11.948;2022-07-03T05:33:31;4.80;;;4.40;;
7080;SDS011;3582;51.506;11.948;2022-07-03T05:35:57;7.23;;;3.87;;
7080;SDS011;3582;51.506;11.948;2022-07-03T05:38:23;5.00;;;4.70;;
7080;SDS011;3582;51.506;11.948;2022-07-03T05:41:08;4.70;;;4.40;;
7080;SDS011;3582;51.506;11.948;2022-07-03T05:43:34;4.10;;;3.90;;
7080;SDS011;3582;51.506;11.948;2022-07-03T05:46:00;4.50;;;4.20;;
7080;SDS011;3582;51.506;11.948;2022-07-03T05:48:26;4.17;;;3.97;;
7080;SDS011;3582;51.506;11.948;2022-07-03T05:50:52;4.53;;;3.83;;
7080;SDS011;3582;51.506;11.948;2022-07-03T05:53:18;2.93;;;2.63;;
7080;SDS011;3582;51.506;11.948;2022-07-03T05:55:44;4.33;;;3.90;;
7080;SDS011;3582;51.506;11.948;2022-07-03T05:58:10;2.83;;;2.70;;
7080;SDS011;3582;51.506;11.948;2022-07-03T06:00:36;3.10;;;3.00;;
7080;SDS011;3582;51.506;11.948;2022-07-03T06:03:02;3.13;;;2.93;;
7080;SDS011;3582;51.506;11.948;2022-07-03T06:05:28;2.60;;;2.47;;
7080;SDS011;3582;51.506;11.948;2022-07-03T06:07:54;2.93;;;2.80;;
7080;SDS011;3582;51.506;11.948;2022-07-03T06:10:20;2.60;;;2.50;;
7080;SDS011;3582;51.506;11.948;2022-07-03T06:12:47;3.57;;;2.87;;
7080;SDS011;3582;51.506;11.948;2022-07-03T06:15:13;3.07;;;2.93;;
7080;SDS011;3582;51.506;11.948;2022-07-03T06:17:39;3.63;;;3.40;;
7080;SDS011;3582;51.506;11.948;2022-07-03T06:20:05;6.50;;;3.47;;
7080;SDS011;3582;51.506;11.948;2022-07-03T06:22:31;2.70;;;2.50;;
7080;SDS011;3582;51.506;11.948;2022-07-03T06:24:57;3.40;;;3.20;;
7080;SDS011;3582;51.506;11.948;2022-07-03T06:27:24;3.33;;;3.10;;
7080;SDS011;3582;51.506;11.948;2022-07-03T06:29:49;2.87;;;2.77;;
7080;SDS011;3582;51.506;11.948;2022-07-03T06:32:16;3.77;;;3.47;;
7080;SDS011;3582;51.506;11.948;2022-07-03T06:34:42;3.13;;;2.93;;
7080;SDS011;3582;51.506;11.948;2022-07-03T06:37:08;2.87;;;2.67;;
7080;SDS011;3582;51.506;11.948;2022-07-03T06:39:34;2.50;;;2.40;;
7080;SDS011;3582;51.506;11.948;2022-07-03T06:42:00;3.10;;;3.00;;
7080;SDS011;3582;51.506;11.948;2022-07-03T06:44:26;6.07;;;3.10;;
7080;SDS011;3582;51.506;11.948;2022-07-03T06:46:52;3.30;;;3.10;;
7080;SDS011;3582;51.506;11.948;2022-07-03T06:49:18;2.80;;;2.70;;
7080;SDS011;3582;51.506;11.948;2022-07-03T06:51:44;3.80;;;3.57;;
7080;SDS011;3582;51.506;11.948;2022-07-03T06:54:10;5.50;;;3.40;;
7080;SDS011;3582;51.506;11.948;2022-07-03T06:56:36;5.37;;;3.47;;
7080;SDS011;3582;51.506;11.948;2022-07-03T06:59:02;3.13;;;3.03;;
7080;SDS011;3582;51.506;11.948;2022-07-03T07:01:28;4.37;;;3.87;;
7080;SDS011;3582;51.506;11.948;2022-07-03T07:03:55;3.63;;;3.43;;
7080;SDS011;3582;51.506;11.948;2022-07-03T07:06:21;4.20;;;3.97;;
7080;SDS011;3582;51.506;11.948;2022-07-03T07:08:47;4.13;;;3.83;;
7080;SDS011;3582;51.506;11.948;2022-07-03T07:11:13;5.90;;;4.43;;
7080;SDS011;3582;51.506;11.948;2022-07-03T07:13:39;5.40;;;4.90;;
7080;SDS011;3582;51.506;11.948;2022-07-03T07:16:05;4.43;;;4.13;;
7080;SDS011;3582;51.506;11.948;2022-07-03T07:18:31;4.17;;;3.83;;
7080;SDS011;3582;51.506;11.948;2022-07-03T07:20:57;4.90;;;4.60;;
7080;SDS011;3582;51.506;11.948;2022-07-03T07:23:23;7.43;;;4.53;;
7080;SDS011;3582;51.506;11.948;2022-07-03T07:25:49;5.27;;;4.87;;
7080;SDS011;3582;51.506;11.948;2022-07-03T07:28:15;5.77;;;5.27;;
7080;SDS011;3582;51.506;11.948;2022-07-03T07:30:41;4.83;;;4.40;;
7080;SDS011;3582;51.506;11.948;2022-07-03T07:33:07;4.93;;;4.63;;
7080;SDS011;3582;51.506;11.948;2022-07-03T07:35:33;5.53;;;4.87;;
7080;SDS011;3582;51.506;11.948;2022-07-03T07:37:59;5.37;;;5.07;;
7080;SDS011;3582;51.506;11.948;2022-07-03T07:40:25;4.67;;;4.27;;
7080;SDS011;3582;51.506;11.948;2022-07-03T07:42:51;5.20;;;4.80;;
7080;SDS011;3582;51.506;11.948;2022-07-03T07:45:17;5.17;;;4.67;;
7080;SDS011;3582;51.506;11.948;2022-07-03T07:47:43;4.50;;;4.20;;
7080;SDS011;3582;51.506;11.948;2022-07-03T07:50:09;4.20;;;3.90;;
7080;SDS011;3582;51.506;11.948;2022-07-03T07:52:35;5.10;;;4.60;;
7080;SDS011;3582;51.506;11.948;2022-07-03T07:55:01;4.50;;;4.30;;
7080;SDS011;3582;51.506;11.948;2022-07-03T07:57:37;5.10;;;4.00;;
7080;SDS011;3582;51.506;11.948;2022-07-03T08:00:04;3.77;;;3.57;;
7080;SDS011;3582;51.506;11.948;2022-07-03T08:02:30;5.63;;;3.60;;
7080;SDS011;3582;51.506;11.948;2022-07-03T08:05:15;3.33;;;3.20;;
7080;SDS011;3582;51.506;11.948;2022-07-03T08:08:00;4.60;;;4.20;;
7080;SDS011;3582;51.506;11.948;2022-07-03T08:10:25;3.70;;;3.43;;
7080;SDS011;3582;51.506;11.948;2022-07-03T08:12:51;3.63;;;3.33;;
7080;SDS011;3582;51.506;11.948;2022-07-03T08:15:17;4.70;;;4.27;;
7080;SDS011;3582;51.506;11.948;2022-07-03T08:17:43;3.47;;;3.27;;
7080;SDS011;3582;51.506;11.948;2022-07-03T08:20:09;3.60;;;3.40;;
7080;SDS011;3582;51.506;11.948;2022-07-03T08:22:35;4.00;;;3.00;;
7080;SDS011;3582;51.506;11.948;2022-07-03T08:25:01;3.30;;;3.03;;
7080;SDS011;3582;51.506;11.948;2022-07-03T08:27:27;5.33;;;3.20;;
7080;SDS011;3582;51.506;11.948;2022-07-03T08:29:53;3.47;;;3.27;;
7080;SDS011;3582;51.506;11.948;2022-07-03T08:32:19;4.70;;;4.30;;
7080;SDS011;3582;51.506;11.948;2022-07-03T08:34:45;3.67;;;3.37;;
7080;SDS011;3582;51.506;11.948;2022-07-03T08:37:11;4.13;;;2.97;;
7080;SDS011;3582;51.506;11.948;2022-07-03T08:39:37;4.43;;;3.67;;
7080;SDS011;3582;51.506;11.948;2022-07-03T08:42:04;3.57;;;3.37;;
7080;SDS011;3582;51.506;11.948;2022-07-03T08:44:30;3.70;;;3.47;;
7080;SDS011;3582;51.506;11.948;2022-07-03T08:46:56;3.60;;;3.40;;
7080;SDS011;3582;51.506;11.948;2022-07-03T08:49:23;3.50;;;3.20;;
7080;SDS011;3582;51.506;11.948;2022-07-03T08:51:50;4.37;;;3.53;;
7080;SDS011;3582;51.506;11.948;2022-07-03T08:54:18;3.73;;;3.50;;
7080;SDS011;3582;51.506;11.948;2022-07-03T08:56:44;3.20;;;3.00;;
7080;SDS011;3582;51.506;11.948;2022-07-03T08:59:10;3.33;;;3.13;;
7080;SDS011;3582;51.506;11.948;2022-07-03T09:01:37;3.13;;;2.93;;
7080;SDS011;3582;51.506;11.948;2022-07-03T09:04:08;3.93;;;3.13;;
7080;SDS011;3582;51.506;11.948;2022-07-03T09:06:34;6.33;;;4.30;;
7080;SDS011;3582;51.506;11.948;2022-07-03T09:09:03;3.43;;;3.27;;
7080;SDS011;3582;51.506;11.948;2022-07-03T09:11:29;3.43;;;3.13;;
7080;SDS011;3582;51.506;11.948;2022-07-03T09:13:55;2.80;;;2.70;;
7080;SDS011;3582;51.506;11.948;2022-07-03T09:16:21;2.80;;;2.70;;
7080;SDS011;3582;51.506;11.948;2022-07-03T09:18:46;2.67;;;2.50;;
7080;SDS011;3582;51.506;11.948;2022-07-03T09:21:12;2.83;;;2.60;;
7080;SDS011;3582;51.506;11.948;2022-07-03T09:23:40;4.63;;;3.00;;
7080;SDS011;3582;51.506;11.948;2022-07-03T09:26:06;2.80;;;2.70;;
7080;SDS011;3582;51.506;11.948;2022-07-03T09:28:41;2.60;;;2.40;;
7080;SDS011;3582;51.506;11.948;2022-07-03T09:31:08;3.27;;;2.97;;
7080;SDS011;3582;51.506;11.948;2022-07-03T09:33:33;2.23;;;2.13;;
7080;SDS011;3582;51.506;11.948;2022-07-03T09:35:59;2.37;;;2.27;;
7080;SDS011;3582;51.506;11.948;2022-07-03T09:38:25;2.70;;;2.50;;
7080;SDS011;3582;51.506;11.948;2022-07-03T09:40:52;3.00;;;2.80;;
7080;SDS011;3582;51.506;11.948;2022-07-03T09:43:23;3.47;;;3.27;;
7080;SDS011;3582;51.506;11.948;2022-07-03T09:45:53;6.60;;;2.40;;
7080;SDS011;3582;51.506;11.948;2022-07-03T09:48:29;3.80;;;2.57;;
7080;SDS011;3582;51.506;11.948;2022-07-03T09:53:43;2.47;;;2.37;;
7080;SDS011;3582;51.506;11.948;2022-07-03T09:56:09;2.90;;;2.70;;
7080;SDS011;3582;51.506;11.948;2022-07-03T09:58:35;2.53;;;2.43;;
7080;SDS011;3582;51.506;11.948;2022-07-03T10:01:17;4.17;;;2.83;;
7080;SDS011;3582;51.506;11.948;2022-07-03T10:03:43;2.97;;;2.77;;
7080;SDS011;3582;51.506;11.948;2022-07-03T10:06:09;2.30;;;2.20;;
7080;SDS011;3582;51.506;11.948;2022-07-03T10:08:35;2.30;;;2.20;;
7080;SDS011;3582;51.506;11.948;2022-07-03T10:11:02;2.63;;;2.43;;
7080;SDS011;3582;51.506;11.948;2022-07-03T10:13:31;2.43;;;1.90;;
7080;SDS011;3582;51.506;11.948;2022-07-03T10:15:58;2.30;;;2.20;;
7080;SDS011;3582;51.506;11.948;2022-07-03T10:18:27;2.10;;;1.93;;
7080;SDS011;3582;51.506;11.948;2022-07-03T10:20:57;2.10;;;1.93;;
7080;SDS011;3582;51.506;11.948;2022-07-03T10:23:24;2.10;;;2.00;;
7080;SDS011;3582;51.506;11.948;2022-07-03T10:25:50;2.80;;;2.03;;
7080;SDS011;3582;51.506;11.948;2022-07-03T10:28:17;5.43;;;2.00;;
7080;SDS011;3582;51.506;11.948;2022-07-03T10:30:44;1.87;;;1.83;;
7080;SDS011;3582;51.506;11.948;2022-07-03T10:33:10;1.90;;;1.90;;
7080;SDS011;3582;51.506;11.948;2022-07-03T10:35:36;1.93;;;1.83;;
7080;SDS011;3582;51.506;11.948;2022-07-03T10:43:42;2.17;;;1.97;;
7080;SDS011;3582;51.506;11.948;2022-07-03T10:46:28;2.40;;;2.30;;
7080;SDS011;3582;51.506;11.948;2022-07-03T10:51:23;2.40;;;2.00;;
7080;SDS011;3582;51.506;11.948;2022-07-03T10:53:49;1.90;;;1.80;;
7080;SDS011;3582;51.506;11.948;2022-07-03T10:56:15;2.50;;;1.90;;
7080;SDS011;3582;51.506;11.948;2022-07-03T10:58:59;2.63;;;1.53;;
7080;SDS011;3582;51.506;11.948;2022-07-03T11:01:28;3.73;;;2.07;;
7080;SDS011;3582;51.506;11.948;2022-07-03T11:03:58;1.87;;;1.77;;
7080;SDS011;3582;51.506;11.948;2022-07-03T11:09:07;4.57;;;1.70;;
7080;SDS011;3582;51.506;11.948;2022-07-03T11:11:44;3.60;;;1.90;;
7080;SDS011;3582;51.506;11.948;2022-07-03T11:14:24;1.50;;;1.40;;
7080;SDS011;3582;51.506;11.948;2022-07-03T11:17:15;4.20;;;1.70;;
7080;SDS011;3582;51.506;11.948;2022-07-03T11:19:36;3.00;;;1.80;;
7080;SDS011;3582;51.506;11.948;2022-07-03T11:22:02;2.23;;;1.90;;
7080;SDS011;3582;51.506;11.948;2022-07-03T11:24:35;2.20;;;1.50;;
7080;SDS011;3582;51.506;11.948;2022-07-03T11:27:13;2.00;;;1.83;;
7080;SDS011;3582;51.506;11.948;2022-07-03T11:29:39;4.70;;;1.90;;
7080;SDS011;3582;51.506;11.948;2022-07-03T11:34:50;1.70;;;1.37;;
7080;SDS011;3582;51.506;11.948;2022-07-03T11:37:19;1.70;;;1.63;;
7080;SDS011;3582;51.506;11.948;2022-07-03T11:39:46;1.70;;;1.60;;
7080;SDS011;3582;51.506;11.948;2022-07-03T11:42:13;2.03;;;1.83;;
7080;SDS011;3582;51.506;11.948;2022-07-03T11:44:39;1.50;;;1.40;;
7080;SDS011;3582;51.506;11.948;2022-07-03T11:47:05;1.63;;;1.50;;
7080;SDS011;3582;51.506;11.948;2022-07-03T11:49:31;1.40;;;1.40;;
7080;SDS011;3582;51.506;11.948;2022-07-03T11:51:59;2.90;;;1.60;;
7080;SDS011;3582;51.506;11.948;2022-07-03T11:54:26;1.63;;;1.53;;
7080;SDS011;3582;51.506;11.948;2022-07-03T11:56:54;1.80;;;1.33;;
7080;SDS011;3582;51.506;11.948;2022-07-03T11:59:20;2.20;;;1.63;;
7080;SDS011;3582;51.506;11.948;2022-07-03T12:01:47;1.30;;;1.30;;
7080;SDS011;3582;51.506;11.948;2022-07-03T12:04:17;1.63;;;1.53;;
7080;SDS011;3582;51.506;11.948;2022-07-03T12:06:50;1.80;;;1.57;;
7080;SDS011;3582;51.506;11.948;2022-07-03T12:09:23;1.90;;;1.80;;
7080;SDS011;3582;51.506;11.948;2022-07-03T12:14:32;1.60;;;1.60;;
7080;SDS011;3582;51.506;11.948;2022-07-03T12:16:58;2.63;;;1.67;;
7080;SDS011;3582;51.506;11.948;2022-07-03T12:19:24;1.63;;;1.50;;
7080;SDS011;3582;51.506;11.948;2022-07-03T12:21:50;1.77;;;1.67;;
7080;SDS011;3582;51.506;11.948;2022-07-03T12:24:16;2.07;;;1.97;;
7080;SDS011;3582;51.506;11.948;2022-07-03T12:26:42;1.50;;;1.50;;
7080;SDS011;3582;51.506;11.948;2022-07-03T12:29:09;1.80;;;1.80;;
7080;SDS011;3582;51.506;11.948;2022-07-03T12:31:38;1.80;;;1.73;;
7080;SDS011;3582;51.506;11.948;2022-07-03T12:34:04;1.60;;;1.43;;
7080;SDS011;3582;51.506;11.948;2022-07-03T12:36:30;1.40;;;1.40;;
7080;SDS011;3582;51.506;11.948;2022-07-03T12:38:56;1.60;;;1.50;;
7080;SDS011;3582;51.506;11.948;2022-07-03T12:41:24;2.20;;;1.73;;
7080;SDS011;3582;51.506;11.948;2022-07-03T12:43:50;1.63;;;1.53;;
7080;SDS011;3582;51.506;11.948;2022-07-03T12:48:59;1.40;;;1.37;;
7080;SDS011;3582;51.506;11.948;2022-07-03T12:51:38;2.37;;;1.67;;
7080;SDS011;3582;51.506;11.948;2022-07-03T12:56:33;1.33;;;1.33;;
7080;SDS011;3582;51.506;11.948;2022-07-03T12:58:59;3.30;;;1.60;;
7080;SDS011;3582;51.506;11.948;2022-07-03T13:01:46;1.60;;;1.50;;
7080;SDS011;3582;51.506;11.948;2022-07-03T13:04:32;1.60;;;1.60;;
7080;SDS011;3582;51.506;11.948;2022-07-03T13:07:05;2.70;;;2.07;;
7080;SDS011;3582;51.506;11.948;2022-07-03T13:09:31;1.50;;;1.40;;
7080;SDS011;3582;51.506;11.948;2022-07-03T13:11:57;2.30;;;2.10;;
7080;SDS011;3582;51.506;11.948;2022-07-03T13:14:23;1.90;;;1.70;;
7080;SDS011;3582;51.506;11.948;2022-07-03T13:16:50;2.00;;;1.90;;
7080;SDS011;3582;51.506;11.948;2022-07-03T13:19:18;3.40;;;1.70;;
7080;SDS011;3582;51.506;11.948;2022-07-03T13:21:44;5.17;;;1.10;;
7080;SDS011;3582;51.506;11.948;2022-07-03T13:24:10;1.80;;;1.70;;
7080;SDS011;3582;51.506;11.948;2022-07-03T13:26:37;1.50;;;1.40;;
7080;SDS011;3582;51.506;11.948;2022-07-03T13:29:03;2.00;;;1.50;;
7080;SDS011;3582;51.506;11.948;2022-07-03T13:31:29;1.30;;;1.30;;
7080;SDS011;3582;51.506;11.948;2022-07-03T13:33:58;1.50;;;1.40;;
7080;SDS011;3582;51.506;11.948;2022-07-03T13:36:27;2.00;;;1.90;;
7080;SDS011;3582;51.506;11.948;2022-07-03T13:38:53;4.30;;;1.80;;
7080;SDS011;3582;51.506;11.948;2022-07-03T13:41:19;1.83;;;1.70;;
7080;SDS011;3582;51.506;11.948;2022-07-03T13:43:47;2.20;;;2.10;;
7080;SDS011;3582;51.506;11.948;2022-07-03T13:46:14;1.50;;;1.43;;
7080;SDS011;3582;51.506;11.948;2022-07-03T13:48:40;1.93;;;1.83;;
7080;SDS011;3582;51.506;11.948;2022-07-03T13:51:06;2.87;;;1.40;;
7080;SDS011;3582;51.506;11.948;2022-07-03T13:53:32;1.47;;;1.47;;
7080;SDS011;3582;51.506;11.948;2022-07-03T13:55:59;2.60;;;1.77;;
7080;SDS011;3582;51.506;11.948;2022-07-03T13:58:25;2.43;;;1.73;;
7080;SDS011;3582;51.506;11.948;2022-07-03T14:00:51;2.53;;;1.57;;
7080;SDS011;3582;51.506;11.948;2022-07-03T14:03:17;1.50;;;1.40;;
7080;SDS011;3582;51.506;11.948;2022-07-03T14:05:43;2.70;;;1.90;;
7080;SDS011;3582;51.506;11.948;2022-07-03T14:08:09;3.63;;;1.67;;
7080;SDS011;3582;51.506;11.948;2022-07-03T14:10:36;2.57;;;1.70;;
7080;SDS011;3582;51.506;11.948;2022-07-03T14:13:03;2.00;;;1.80;;
7080;SDS011;3582;51.506;11.948;2022-07-03T14:15:32;1.70;;;1.60;;
7080;SDS011;3582;51.506;11.948;2022-07-03T14:17:59;1.70;;;1.47;;
7080;SDS011;3582;51.506;11.948;2022-07-03T14:20:26;2.07;;;1.87;;
7080;SDS011;3582;51.506;11.948;2022-07-03T14:22:52;1.73;;;1.70;;
7080;SDS011;3582;51.506;11.948;2022-07-03T14:25:18;1.63;;;1.53;;
7080;SDS011;3582;51.506;11.948;2022-07-03T14:27:44;5.20;;;1.43;;
7080;SDS011;3582;51.506;11.948;2022-07-03T14:30:29;2.20;;;1.63;;
7080;SDS011;3582;51.506;11.948;2022-07-03T14:33:13;1.57;;;1.47;;
7080;SDS011;3582;51.506;11.948;2022-07-03T14:35:39;2.07;;;1.97;;
7080;SDS011;3582;51.506;11.948;2022-07-03T14:38:05;2.33;;;1.83;;
7080;SDS011;3582;51.506;11.948;2022-07-03T14:40:31;1.70;;;1.60;;
7080;SDS011;3582;51.506;11.948;2022-07-03T14:42:57;1.47;;;1.47;;
7080;SDS011;3582;51.506;11.948;2022-07-03T14:45:24;1.50;;;1.40;;
7080;SDS011;3582;51.506;11.948;2022-07-03T14:47:49;1.80;;;1.70;;
7080;SDS011;3582;51.506;11.948;2022-07-03T14:50:15;1.90;;;1.80;;
7080;SDS011;3582;51.506;11.948;2022-07-03T14:52:41;2.50;;;1.60;;
7080;SDS011;3582;51.506;11.948;2022-07-03T14:55:07;2.50;;;1.50;;
7080;SDS011;3582;51.506;11.948;2022-07-03T15:00:04;2.07;;;1.80;;
7080;SDS011;3582;51.506;11.948;2022-07-03T15:05:16;1.67;;;1.57;;
7080;SDS011;3582;51.506;11.948;2022-07-03T15:07:43;2.30;;;2.10;;
7080;SDS011;3582;51.506;11.948;2022-07-03T15:10:10;1.67;;;1.57;;
7080;SDS011;3582;51.506;11.948;2022-07-03T15:12:46;2.77;;;2.30;;
7080;SDS011;3582;51.506;11.948;2022-07-03T15:15:14;2.70;;;1.67;;
7080;SDS011;3582;51.506;11.948;2022-07-03T15:17:40;3.33;;;1.77;;
7080;SDS011;3582;51.506;11.948;2022-07-03T15:20:06;1.33;;;1.33;;
7080;SDS011;3582;51.506;11.948;2022-07-03T15:22:37;1.40;;;1.30;;
7080;SDS011;3582;51.506;11.948;2022-07-03T15:25:04;1.73;;;1.50;;
7080;SDS011;3582;51.506;11.948;2022-07-03T15:27:31;1.60;;;1.60;;
7080;SDS011;3582;51.506;11.948;2022-07-03T15:29:57;1.90;;;1.80;;
7080;SDS011;3582;51.506;11.948;2022-07-03T15:32:23;2.30;;;1.60;;
7080;SDS011;3582;51.506;11.948;2022-07-03T15:34:49;3.10;;;1.57;;
7080;SDS011;3582;51.506;11.948;2022-07-03T15:45:44;1.70;;;1.60;;
7080;SDS011;3582;51.506;11.948;2022-07-03T15:48:27;1.63;;;1.50;;
7080;SDS011;3582;51.506;11.948;2022-07-03T15:50:59;1.70;;;1.60;;
7080;SDS011;3582;51.506;11.948;2022-07-03T15:53:33;1.67;;;1.57;;
7080;SDS011;3582;51.506;11.948;2022-07-03T15:56:03;2.30;;;2.00;;
7080;SDS011;3582;51.506;11.948;2022-07-03T15:58:30;2.30;;;1.80;;
7080;SDS011;3582;51.506;11.948;2022-07-03T16:00:58;2.10;;;2.00;;